Terminal Aerodrome Forecast
Issued by NWS Twin Cities, MN

Home | Current Version | Previous Version | Text Only | Print | Product List | Glossary On
Versions: 1 2 3 4 5 6 7 8 9 10 11 12 13 14 15 16 17 18 19 20 21 22 23 24 25 26
626
FTUS43 KMPX 250629 CCB
TAFSTC
TAF COR
KSTC 250629Z 2506/2606 30005KT 6SM -SHRA BR OVC012
     FM251200 35006KT 4SM -DZ BR OVC009
     FM252000 36006KT 6SM -SHRA OVC015=

USA.gov is the U.S. government's official web portal to all federal, state and local government web resources and services.